TimeEST,TemperatureF,Dew PointF,Humidity,Sea Level PressureIn,VisibilityMPH,Wind Direction,Wind SpeedMPH,Gust SpeedMPH,PrecipitationIn,Events,Conditions,WindDirDegrees,DateUTC
1:54 AM,28.9,21.9,75,30.23,10.0,South,6.9,-,N/A,,Clear,170,2012-12-14 06:54:00
2:54 AM,28.9,21.9,75,30.24,10.0,SSE,5.8,-,N/A,,Clear,150,2012-12-14 07:54:00
3:54 AM,30.0,21.0,69,30.24,10.0,South,4.6,-,N/A,,Clear,170,2012-12-14 08:54:00
4:54 AM,28.9,19.9,69,30.23,10.0,SSE,5.8,-,N/A,,Clear,160,2012-12-14 09:54:00
5:54 AM,30.9,19.9,64,30.23,10.0,SE,3.5,-,N/A,,Clear,140,2012-12-14 10:54:00
6:54 AM,28.0,21.0,75,30.23,10.0,SSE,4.6,-,N/A,,Clear,160,2012-12-14 11:54:00
7:54 AM,28.0,21.0,75,30.24,10.0,South,4.6,-,N/A,,Clear,180,2012-12-14 12:54:00
8:54 AM,32.0,21.9,66,30.24,10.0,Calm,Calm,-,N/A,,Clear,0,2012-12-14 13:54:00
9:54 AM,37.9,25.0,60,30.25,10.0,Calm,Calm,-,N/A,,Scattered Clouds,0,2012-12-14 14:54:00
10:54 AM,43.0,28.9,58,30.25,10.0,West,5.8,-,N/A,,Overcast,260,2012-12-14 15:54:00
11:54 AM,45.0,30.9,58,30.24,10.0,West,10.4,20.7,N/A,,Scattered Clouds,280,2012-12-14 16:54:00
12:54 PM,44.1,30.9,60,30.23,10.0,West,8.1,-,N/A,,Scattered Clouds,280,2012-12-14 17:54:00
1:54 PM,44.1,30.9,60,30.24,10.0,WNW,8.1,-,N/A,,Scattered Clouds,290,2012-12-14 18:54:00
2:54 PM,44.1,30.9,60,30.23,10.0,WNW,6.9,-,N/A,,Clear,290,2012-12-14 19:54:00
3:54 PM,41.0,32.0,70,30.24,10.0,NW,5.8,-,N/A,,Clear,310,2012-12-14 20:54:00
5:54 PM,34.0,30.0,85,30.28,10.0,Calm,Calm,-,N/A,,Mostly Cloudy,0,2012-12-14 22:54:00
6:54 PM,33.1,28.9,85,30.30,10.0,South,3.5,-,N/A,,Clear,180,2012-12-14 23:54:00
7:54 PM,30.9,28.0,89,30.31,10.0,SSE,4.6,-,N/A,,Partly Cloudy,150,2012-12-15 00:54:00
8:54 PM,30.0,27.0,88,30.30,9.0,Calm,Calm,-,N/A,,Scattered Clouds,0,2012-12-15 01:54:00
9:04 PM,30.2,26.6,86,30.24,9.0,Calm,Calm,-,N/A,,Mostly Cloudy,0,2012-12-15 02:04:00
9:14 PM,30.2,28.4,93,30.25,9.0,Calm,Calm,-,N/A,,Overcast,0,2012-12-15 02:14:00
9:30 PM,30.2,28.4,93,30.27,9.0,Calm,Calm,-,N/A,,Overcast,0,2012-12-15 02:30:00
9:54 PM,30.9,28.0,89,30.30,9.0,SSE,3.5,-,N/A,,Mostly Cloudy,160,2012-12-15 02:54:00
10:04 PM,30.2,28.4,93,30.26,9.0,Calm,Calm,-,N/A,,Scattered Clouds,0,2012-12-15 03:04:00
10:54 PM,28.9,27.0,92,30.30,8.0,SSE,3.5,-,N/A,,Clear,150,2012-12-15 03:54:00
11:34 PM,28.4,26.6,93,30.25,8.0,SSE,3.5,-,N/A,,Mostly Cloudy,150,2012-12-15 04:34:00
11:54 PM,30.0,28.0,92,30.30,8.0,SSE,3.5,-,N/A,,Overcast,160,2012-12-15 04:54:00